Nearby METAR Reports

 

KHOT - Hot Springs, Arkansas, USA
Distance from station: W 8mi, 14km
Updated: 04/14/2021 5:53pm
Overcast
Overcast
 Wind from NE
Wind: NE 6 mph , 9 km/h
Temperature: 57°F , 14°C
Dew Point: 52°F , 11°C
Humidity: 82%
Barometer: 30.08 inHg , 1018.6 hPa
Clouds: Overcast
Visibility: 10 miles , 16 km
Cloud details: Overcast 1700 ft
2021/04/14 22:53 KHOT 142253Z AUTO 05005KT 10SM OVC017 14/11 A3008 RMK AO2 SLP185 T01440106
KMWT - Mount Ida, Arkansas, USA
Distance from station: W 36mi, 58km
Updated: 04/14/2021 5:53pm
Overcast
Overcast
 Wind from calm
Wind: Calm
Temperature: 57°F , 14°C
Dew Point: 52°F , 11°C
Humidity: 82%
Barometer: 30.06 inHg , 1017.9 hPa
Clouds: Overcast
Visibility: 10 miles , 16 km
Cloud details: Overcast 2500 ft
2021/04/14 22:53 KMWT 142253Z AUTO 00000KT 10SM OVC025 14/11 A3006 RMK AO2 SLP179 T01390106
 
KLIT - Little Rock, Arkansas, USA
Distance from station: ENE 45mi, 73km
Updated: 04/14/2021 5:53pm
Mostly cloudy
Mostly cloudy
 Wind from NNE
Wind: NNE 10 mph , 17 km/h
Temperature: 61°F , 16°C
Dew Point: 48°F , 9°C
Humidity: 63%
Barometer: 30.07 inHg , 1018.3 hPa
Clouds: Mostly cloudy
Visibility: 10 miles , 16 km
Cloud details: Mostly cloudy 9000 ft
2021/04/14 22:53 KLIT 142253Z 02009KT 10SM BKN090 16/09 A3007 RMK AO2 SLP183 T01560094
KLRF - Little Rock Afb, Arkansas, USA
Distance from station: NE 56mi, 89km
Updated: 04/14/2021 5:56pm
Overcast
Overcast
 Wind from NNE
Wind: NNE 7 mph , 11 km/h
Temperature: 59°F , 15°C
Dew Point: 48°F , 9°C
Humidity: 68%
Barometer: 30.07 inHg , 1018.3 hPa
Clouds: Overcast
Visibility: 10 miles , 16 km
Cloud details: Overcast 9000 ft
2021/04/14 22:56 KLRF 142256Z 03006KT 10SM OVC090 15/09 A3007 RMK SLPNO